sensor_id;sensor_type;location;lat;lon;timestamp;P1;durP1;ratioP1;P2;durP2;ratioP2
40781;SDS011;26493;51.938;7.626;2022-07-12T00:01:17;14.57;;;8.10;;
40781;SDS011;26493;51.938;7.626;2022-07-12T00:03:43;15.65;;;8.93;;
40781;SDS011;26493;51.938;7.626;2022-07-12T00:06:09;15.43;;;8.68;;
40781;SDS011;26493;51.938;7.626;2022-07-12T00:08:35;14.98;;;8.30;;
40781;SDS011;26493;51.938;7.626;2022-07-12T00:11:02;15.13;;;8.30;;
40781;SDS011;26493;51.938;7.626;2022-07-12T00:13:28;14.73;;;8.02;;
40781;SDS011;26493;51.938;7.626;2022-07-12T00:15:55;14.65;;;8.10;;
40781;SDS011;26493;51.938;7.626;2022-07-12T00:18:21;14.55;;;7.72;;
40781;SDS011;26493;51.938;7.626;2022-07-12T00:20:48;14.77;;;7.85;;
40781;SDS011;26493;51.938;7.626;2022-07-12T00:23:14;15.00;;;8.10;;
40781;SDS011;26493;51.938;7.626;2022-07-12T00:25:40;14.25;;;7.80;;
40781;SDS011;26493;51.938;7.626;2022-07-12T00:28:06;14.82;;;8.20;;
40781;SDS011;26493;51.938;7.626;2022-07-12T00:30:32;14.95;;;8.20;;
40781;SDS011;26493;51.938;7.626;2022-07-12T00:32:58;15.63;;;8.73;;
40781;SDS011;26493;51.938;7.626;2022-07-12T00:35:24;15.60;;;8.65;;
40781;SDS011;26493;51.938;7.626;2022-07-12T00:37:50;15.65;;;8.48;;
40781;SDS011;26493;51.938;7.626;2022-07-12T00:40:16;14.60;;;8.23;;
40781;SDS011;26493;51.938;7.626;2022-07-12T00:42:43;14.60;;;8.13;;
40781;SDS011;26493;51.938;7.626;2022-07-12T00:45:09;15.45;;;8.90;;
40781;SDS011;26493;51.938;7.626;2022-07-12T00:47:39;18.85;;;9.00;;
40781;SDS011;26493;51.938;7.626;2022-07-12T00:50:08;15.68;;;8.40;;
40781;SDS011;26493;51.938;7.626;2022-07-12T00:52:35;15.65;;;8.15;;
40781;SDS011;26493;51.938;7.626;2022-07-12T00:55:02;15.50;;;8.73;;
40781;SDS011;26493;51.938;7.626;2022-07-12T00:57:28;15.25;;;8.82;;
40781;SDS011;26493;51.938;7.626;2022-07-12T00:59:55;14.93;;;8.70;;
40781;SDS011;26493;51.938;7.626;2022-07-12T01:02:21;15.68;;;8.70;;
40781;SDS011;26493;51.938;7.626;2022-07-12T01:04:47;15.48;;;8.60;;
40781;SDS011;26493;51.938;7.626;2022-07-12T01:07:13;15.50;;;8.68;;
40781;SDS011;26493;51.938;7.626;2022-07-12T01:09:40;15.15;;;8.65;;
40781;SDS011;26493;51.938;7.626;2022-07-12T01:12:06;15.18;;;8.70;;
40781;SDS011;26493;51.938;7.626;2022-07-12T01:14:33;16.20;;;9.07;;
40781;SDS011;26493;51.938;7.626;2022-07-12T01:17:00;15.95;;;8.98;;
40781;SDS011;26493;51.938;7.626;2022-07-12T01:19:26;15.02;;;8.60;;
40781;SDS011;26493;51.938;7.626;2022-07-12T01:21:53;15.13;;;8.55;;
40781;SDS011;26493;51.938;7.626;2022-07-12T01:24:19;15.45;;;8.68;;
40781;SDS011;26493;51.938;7.626;2022-07-12T01:26:46;16.52;;;8.90;;
40781;SDS011;26493;51.938;7.626;2022-07-12T01:29:12;15.38;;;8.80;;
40781;SDS011;26493;51.938;7.626;2022-07-12T01:31:39;15.10;;;8.60;;
40781;SDS011;26493;51.938;7.626;2022-07-12T01:34:05;16.13;;;8.40;;
40781;SDS011;26493;51.938;7.626;2022-07-12T01:36:32;14.88;;;8.43;;
40781;SDS011;26493;51.938;7.626;2022-07-12T01:38:58;16.08;;;8.88;;
40781;SDS011;26493;51.938;7.626;2022-07-12T01:41:24;16.23;;;8.90;;
40781;SDS011;26493;51.938;7.626;2022-07-12T01:43:51;16.45;;;8.80;;
40781;SDS011;26493;51.938;7.626;2022-07-12T01:46:17;16.00;;;8.90;;
40781;SDS011;26493;51.938;7.626;2022-07-12T01:48:42;15.80;;;8.90;;
40781;SDS011;26493;51.938;7.626;2022-07-12T01:51:09;14.85;;;8.45;;
40781;SDS011;26493;51.938;7.626;2022-07-12T01:53:35;15.52;;;8.60;;
40781;SDS011;26493;51.938;7.626;2022-07-12T01:56:04;16.48;;;9.13;;
40781;SDS011;26493;51.938;7.626;2022-07-12T01:58:30;15.38;;;8.77;;
40781;SDS011;26493;51.938;7.626;2022-07-12T02:00:57;16.80;;;8.85;;
40781;SDS011;26493;51.938;7.626;2022-07-12T02:03:23;15.77;;;8.65;;
40781;SDS011;26493;51.938;7.626;2022-07-12T02:05:49;15.48;;;8.32;;
40781;SDS011;26493;51.938;7.626;2022-07-12T02:08:15;16.20;;;8.80;;
40781;SDS011;26493;51.938;7.626;2022-07-12T02:10:42;15.73;;;8.95;;
40781;SDS011;26493;51.938;7.626;2022-07-12T02:13:08;16.00;;;8.52;;
40781;SDS011;26493;51.938;7.626;2022-07-12T02:15:34;16.15;;;8.88;;
40781;SDS011;26493;51.938;7.626;2022-07-12T02:18:01;16.40;;;9.52;;
40781;SDS011;26493;51.938;7.626;2022-07-12T02:20:27;16.20;;;9.10;;
40781;SDS011;26493;51.938;7.626;2022-07-12T02:22:53;15.43;;;9.00;;
40781;SDS011;26493;51.938;7.626;2022-07-12T02:25:19;15.80;;;8.80;;
40781;SDS011;26493;51.938;7.626;2022-07-12T02:27:45;14.98;;;8.48;;
40781;SDS011;26493;51.938;7.626;2022-07-12T02:30:11;14.73;;;8.52;;
40781;SDS011;26493;51.938;7.626;2022-07-12T02:32:37;16.30;;;8.30;;
40781;SDS011;26493;51.938;7.626;2022-07-12T02:35:04;15.90;;;8.20;;
40781;SDS011;26493;51.938;7.626;2022-07-12T02:37:30;16.27;;;8.52;;
40781;SDS011;26493;51.938;7.626;2022-07-12T02:39:56;14.75;;;8.55;;
40781;SDS011;26493;51.938;7.626;2022-07-12T02:42:41;16.30;;;9.32;;
40781;SDS011;26493;51.938;7.626;2022-07-12T02:45:08;14.88;;;8.43;;
40781;SDS011;26493;51.938;7.626;2022-07-12T02:47:36;15.20;;;8.88;;
40781;SDS011;26493;51.938;7.626;2022-07-12T02:50:02;16.07;;;9.33;;
40781;SDS011;26493;51.938;7.626;2022-07-12T02:52:28;15.50;;;8.70;;
40781;SDS011;26493;51.938;7.626;2022-07-12T02:54:55;15.68;;;8.90;;
40781;SDS011;26493;51.938;7.626;2022-07-12T02:57:21;16.58;;;9.00;;
40781;SDS011;26493;51.938;7.626;2022-07-12T02:59:46;15.93;;;8.95;;
40781;SDS011;26493;51.938;7.626;2022-07-12T03:02:12;15.75;;;9.60;;
40781;SDS011;26493;51.938;7.626;2022-07-12T03:04:38;15.60;;;10.13;;
40781;SDS011;26493;51.938;7.626;2022-07-12T03:07:05;16.15;;;10.02;;
40781;SDS011;26493;51.938;7.626;2022-07-12T03:09:31;15.77;;;9.98;;
40781;SDS011;26493;51.938;7.626;2022-07-12T03:11:57;15.18;;;9.85;;
40781;SDS011;26493;51.938;7.626;2022-07-12T03:14:23;15.85;;;10.55;;
40781;SDS011;26493;51.938;7.626;2022-07-12T03:16:49;15.65;;;10.18;;
40781;SDS011;26493;51.938;7.626;2022-07-12T03:19:15;16.92;;;10.30;;
40781;SDS011;26493;51.938;7.626;2022-07-12T03:21:41;15.13;;;9.68;;
40781;SDS011;26493;51.938;7.626;2022-07-12T03:24:07;18.98;;;10.57;;
40781;SDS011;26493;51.938;7.626;2022-07-12T03:26:35;15.75;;;9.63;;
40781;SDS011;26493;51.938;7.626;2022-07-12T03:29:01;16.10;;;10.38;;
40781;SDS011;26493;51.938;7.626;2022-07-12T03:31:27;15.82;;;10.00;;
40781;SDS011;26493;51.938;7.626;2022-07-12T03:33:53;15.75;;;10.00;;
40781;SDS011;26493;51.938;7.626;2022-07-12T03:36:19;16.17;;;10.20;;
40781;SDS011;26493;51.938;7.626;2022-07-12T03:38:45;16.58;;;10.60;;
40781;SDS011;26493;51.938;7.626;2022-07-12T03:41:11;15.90;;;10.15;;
40781;SDS011;26493;51.938;7.626;2022-07-12T03:43:37;15.85;;;10.07;;
40781;SDS011;26493;51.938;7.626;2022-07-12T03:46:03;16.85;;;10.40;;
40781;SDS011;26493;51.938;7.626;2022-07-12T03:48:29;16.40;;;10.60;;
40781;SDS011;26493;51.938;7.626;2022-07-12T03:50:55;16.73;;;10.65;;
40781;SDS011;26493;51.938;7.626;2022-07-12T03:53:21;16.20;;;10.45;;
40781;SDS011;26493;51.938;7.626;2022-07-12T03:55:48;16.90;;;10.20;;
40781;SDS011;26493;51.938;7.626;2022-07-12T03:58:14;16.95;;;10.40;;
40781;SDS011;26493;51.938;7.626;2022-07-12T04:00:40;16.02;;;9.60;;
40781;SDS011;26493;51.938;7.626;2022-07-12T04:03:07;16.25;;;10.63;;
40781;SDS011;26493;51.938;7.626;2022-07-12T04:05:33;16.88;;;10.93;;
40781;SDS011;26493;51.938;7.626;2022-07-12T04:07:59;15.85;;;10.75;;
40781;SDS011;26493;51.938;7.626;2022-07-12T04:10:27;15.90;;;10.35;;
40781;SDS011;26493;51.938;7.626;2022-07-12T04:12:53;15.98;;;10.95;;
40781;SDS011;26493;51.938;7.626;2022-07-12T04:15:19;16.77;;;11.13;;
40781;SDS011;26493;51.938;7.626;2022-07-12T04:17:45;16.98;;;11.32;;
40781;SDS011;26493;51.938;7.626;2022-07-12T04:20:11;16.48;;;11.70;;
40781;SDS011;26493;51.938;7.626;2022-07-12T04:22:37;18.60;;;11.73;;
40781;SDS011;26493;51.938;7.626;2022-07-12T04:25:04;20.02;;;10.95;;
40781;SDS011;26493;51.938;7.626;2022-07-12T04:27:30;17.48;;;11.13;;
40781;SDS011;26493;51.938;7.626;2022-07-12T04:29:56;21.15;;;11.77;;
40781;SDS011;26493;51.938;7.626;2022-07-12T04:32:22;30.02;;;12.70;;
40781;SDS011;26493;51.938;7.626;2022-07-12T04:34:48;31.73;;;13.10;;
40781;SDS011;26493;51.938;7.626;2022-07-12T04:37:14;24.02;;;13.00;;
40781;SDS011;26493;51.938;7.626;2022-07-12T04:39:40;30.13;;;14.10;;
40781;SDS011;26493;51.938;7.626;2022-07-12T04:42:06;25.60;;;14.30;;
40781;SDS011;26493;51.938;7.626;2022-07-12T04:44:32;22.92;;;12.57;;
40781;SDS011;26493;51.938;7.626;2022-07-12T04:46:58;20.13;;;12.68;;
40781;SDS011;26493;51.938;7.626;2022-07-12T04:49:24;20.33;;;13.02;;
40781;SDS011;26493;51.938;7.626;2022-07-12T04:51:50;18.88;;;14.18;;
40781;SDS011;26493;51.938;7.626;2022-07-12T04:54:16;19.75;;;14.02;;
40781;SDS011;26493;51.938;7.626;2022-07-12T04:56:42;19.48;;;14.15;;
40781;SDS011;26493;51.938;7.626;2022-07-12T04:59:08;19.70;;;13.82;;
40781;SDS011;26493;51.938;7.626;2022-07-12T05:01:34;18.83;;;12.90;;
40781;SDS011;26493;51.938;7.626;2022-07-12T05:04:01;19.30;;;13.13;;
40781;SDS011;26493;51.938;7.626;2022-07-12T05:06:27;17.98;;;13.10;;
40781;SDS011;26493;51.938;7.626;2022-07-12T05:08:53;17.95;;;12.93;;
40781;SDS011;26493;51.938;7.626;2022-07-12T05:11:19;21.45;;;13.23;;
40781;SDS011;26493;51.938;7.626;2022-07-12T05:13:45;18.90;;;13.73;;
40781;SDS011;26493;51.938;7.626;2022-07-12T05:16:11;18.77;;;12.30;;
40781;SDS011;26493;51.938;7.626;2022-07-12T05:18:37;18.85;;;12.88;;
40781;SDS011;26493;51.938;7.626;2022-07-12T05:21:03;18.77;;;13.50;;
40781;SDS011;26493;51.938;7.626;2022-07-12T05:23:29;19.48;;;13.80;;
40781;SDS011;26493;51.938;7.626;2022-07-12T05:25:55;18.00;;;13.15;;
40781;SDS011;26493;51.938;7.626;2022-07-12T05:28:21;18.98;;;13.82;;
40781;SDS011;26493;51.938;7.626;2022-07-12T05:30:47;20.10;;;14.25;;
40781;SDS011;26493;51.938;7.626;2022-07-12T05:33:13;20.45;;;13.57;;
40781;SDS011;26493;51.938;7.626;2022-07-12T05:35:39;21.05;;;13.95;;
40781;SDS011;26493;51.938;7.626;2022-07-12T05:38:05;23.75;;;16.42;;
40781;SDS011;26493;51.938;7.626;2022-07-12T05:40:31;19.80;;;14.02;;
40781;SDS011;26493;51.938;7.626;2022-07-12T05:42:57;19.50;;;13.75;;
40781;SDS011;26493;51.938;7.626;2022-07-12T05:45:24;20.10;;;13.93;;
40781;SDS011;26493;51.938;7.626;2022-07-12T05:47:49;19.45;;;13.30;;
40781;SDS011;26493;51.938;7.626;2022-07-12T05:50:15;19.98;;;13.95;;
40781;SDS011;26493;51.938;7.626;2022-07-12T05:52:41;18.58;;;12.50;;
40781;SDS011;26493;51.938;7.626;2022-07-12T05:55:26;21.70;;;13.27;;
40781;SDS011;26493;51.938;7.626;2022-07-12T05:57:52;20.48;;;12.98;;
40781;SDS011;26493;51.938;7.626;2022-07-12T06:00:18;18.98;;;12.18;;
40781;SDS011;26493;51.938;7.626;2022-07-12T06:02:44;21.48;;;12.18;;
40781;SDS011;26493;51.938;7.626;2022-07-12T06:05:10;23.88;;;13.18;;
40781;SDS011;26493;51.938;7.626;2022-07-12T06:07:36;19.70;;;12.73;;
40781;SDS011;26493;51.938;7.626;2022-07-12T06:10:02;27.80;;;14.27;;
40781;SDS011;26493;51.938;7.626;2022-07-12T06:12:29;22.13;;;14.20;;
40781;SDS011;26493;51.938;7.626;2022-07-12T06:14:55;18.98;;;12.07;;
40781;SDS011;26493;51.938;7.626;2022-07-12T06:17:21;17.58;;;11.50;;
40781;SDS011;26493;51.938;7.626;2022-07-12T06:19:48;19.35;;;11.77;;
40781;SDS011;26493;51.938;7.626;2022-07-12T06:22:14;20.65;;;13.70;;
40781;SDS011;26493;51.938;7.626;2022-07-12T06:24:41;19.48;;;11.73;;
40781;SDS011;26493;51.938;7.626;2022-07-12T06:27:08;17.88;;;11.95;;
40781;SDS011;26493;51.938;7.626;2022-07-12T06:29:34;20.02;;;12.60;;
40781;SDS011;26493;51.938;7.626;2022-07-12T06:32:00;19.55;;;11.52;;
40781;SDS011;26493;51.938;7.626;2022-07-12T06:34:26;19.02;;;11.13;;
40781;SDS011;26493;51.938;7.626;2022-07-12T06:36:52;19.90;;;10.95;;
40781;SDS011;26493;51.938;7.626;2022-07-12T06:39:18;20.88;;;10.88;;
40781;SDS011;26493;51.938;7.626;2022-07-12T06:41:44;19.25;;;11.18;;
40781;SDS011;26493;51.938;7.626;2022-07-12T06:44:10;19.67;;;10.68;;
40781;SDS011;26493;51.938;7.626;2022-07-12T06:46:36;19.73;;;11.13;;
40781;SDS011;26493;51.938;7.626;2022-07-12T06:49:02;20.88;;;11.55;;
40781;SDS011;26493;51.938;7.626;2022-07-12T06:51:27;20.98;;;12.30;;
40781;SDS011;26493;51.938;7.626;2022-07-12T06:53:53;19.42;;;12.10;;
40781;SDS011;26493;51.938;7.626;2022-07-12T06:56:19;21.92;;;11.98;;
40781;SDS011;26493;51.938;7.626;2022-07-12T06:58:46;17.70;;;11.60;;
40781;SDS011;26493;51.938;7.626;2022-07-12T07:01:12;18.25;;;11.02;;
40781;SDS011;26493;51.938;7.626;2022-07-12T07:03:38;16.58;;;10.52;;
40781;SDS011;26493;51.938;7.626;2022-07-12T07:06:04;17.38;;;10.02;;
40781;SDS011;26493;51.938;7.626;2022-07-12T07:08:31;16.70;;;10.27;;
40781;SDS011;26493;51.938;7.626;2022-07-12T07:10:57;19.33;;;8.98;;
40781;SDS011;26493;51.938;7.626;2022-07-12T07:13:23;16.63;;;9.23;;
40781;SDS011;26493;51.938;7.626;2022-07-12T07:15:49;18.10;;;9.05;;
40781;SDS011;26493;51.938;7.626;2022-07-12T07:18:15;15.32;;;8.48;;
40781;SDS011;26493;51.938;7.626;2022-07-12T07:20:41;15.57;;;9.10;;
40781;SDS011;26493;51.938;7.626;2022-07-12T07:23:07;16.67;;;8.68;;
40781;SDS011;26493;51.938;7.626;2022-07-12T07:25:35;16.60;;;9.60;;
40781;SDS011;26493;51.938;7.626;2022-07-12T07:28:01;15.27;;;8.88;;
40781;SDS011;26493;51.938;7.626;2022-07-12T07:30:27;16.35;;;9.43;;
40781;SDS011;26493;51.938;7.626;2022-07-12T07:33:11;15.57;;;8.82;;
40781;SDS011;26493;51.938;7.626;2022-07-12T07:35:37;15.98;;;8.98;;
40781;SDS011;26493;51.938;7.626;2022-07-12T07:38:04;14.95;;;8.77;;
40781;SDS011;26493;51.938;7.626;2022-07-12T07:40:30;16.25;;;9.15;;
40781;SDS011;26493;51.938;7.626;2022-07-12T07:42:56;14.63;;;8.65;;
40781;SDS011;26493;51.938;7.626;2022-07-12T07:45:22;16.30;;;9.38;;
40781;SDS011;26493;51.938;7.626;2022-07-12T07:47:48;18.08;;;9.65;;
40781;SDS011;26493;51.938;7.626;2022-07-12T07:50:15;17.33;;;8.40;;
40781;SDS011;26493;51.938;7.626;2022-07-12T07:52:41;15.68;;;8.68;;
40781;SDS011;26493;51.938;7.626;2022-07-12T07:55:07;15.43;;;9.60;;
40781;SDS011;26493;51.938;7.626;2022-07-12T07:57:33;15.38;;;9.50;;
40781;SDS011;26493;51.938;7.626;2022-07-12T07:59:59;15.73;;;9.50;;
40781;SDS011;26493;51.938;7.626;2022-07-12T08:02:25;15.50;;;9.93;;
40781;SDS011;26493;51.938;7.626;2022-07-12T08:04:51;14.77;;;9.15;;
40781;SDS011;26493;51.938;7.626;2022-07-12T08:07:17;14.88;;;9.60;;
40781;SDS011;26493;51.938;7.626;2022-07-12T08:09:43;14.73;;;9.70;;
40781;SDS011;26493;51.938;7.626;2022-07-12T08:12:09;15.05;;;9.68;;
40781;SDS011;26493;51.938;7.626;2022-07-12T08:14:35;15.15;;;9.77;;
40781;SDS011;26493;51.938;7.626;2022-07-12T08:17:01;14.75;;;10.10;;
40781;SDS011;26493;51.938;7.626;2022-07-12T08:19:27;14.55;;;9.70;;
40781;SDS011;26493;51.938;7.626;2022-07-12T08:21:53;15.10;;;9.15;;
40781;SDS011;26493;51.938;7.626;2022-07-12T08:24:19;15.63;;;9.82;;
40781;SDS011;26493;51.938;7.626;2022-07-12T08:26:45;17.40;;;9.80;;
40781;SDS011;26493;51.938;7.626;2022-07-12T08:29:11;14.43;;;9.60;;
40781;SDS011;26493;51.938;7.626;2022-07-12T08:31:37;15.65;;;9.98;;
40781;SDS011;26493;51.938;7.626;2022-07-12T08:34:03;15.75;;;10.02;;
40781;SDS011;26493;51.938;7.626;2022-07-12T08:36:29;14.40;;;9.20;;
40781;SDS011;26493;51.938;7.626;2022-07-12T08:38:55;14.68;;;8.93;;
40781;SDS011;26493;51.938;7.626;2022-07-12T08:41:21;15.65;;;9.98;;
40781;SDS011;26493;51.938;7.626;2022-07-12T08:43:47;14.70;;;9.38;;
40781;SDS011;26493;51.938;7.626;2022-07-12T08:46:14;14.40;;;9.68;;
40781;SDS011;26493;51.938;7.626;2022-07-12T08:48:41;14.68;;;9.75;;
40781;SDS011;26493;51.938;7.626;2022-07-12T08:51:11;16.60;;;9.77;;
40781;SDS011;26493;51.938;7.626;2022-07-12T08:53:37;14.20;;;9.20;;
40781;SDS011;26493;51.938;7.626;2022-07-12T08:56:04;14.32;;;9.32;;
40781;SDS011;26493;51.938;7.626;2022-07-12T08:58:30;15.90;;;10.00;;
40781;SDS011;26493;51.938;7.626;2022-07-12T09:00:57;15.32;;;10.18;;
40781;SDS011;26493;51.938;7.626;2022-07-12T09:03:23;15.45;;;10.18;;
40781;SDS011;26493;51.938;7.626;2022-07-12T09:05:56;15.30;;;10.52;;
40781;SDS011;26493;51.938;7.626;2022-07-12T09:08:29;16.52;;;10.13;;
40781;SDS011;26493;51.938;7.626;2022-07-12T09:10:59;14.65;;;10.10;;
40781;SDS011;26493;51.938;7.626;2022-07-12T09:16:16;14.70;;;9.77;;
40781;SDS011;26493;51.938;7.626;2022-07-12T09:18:43;15.30;;;9.60;;
40781;SDS011;26493;51.938;7.626;2022-07-12T09:21:10;14.30;;;9.13;;
40781;SDS011;26493;51.938;7.626;2022-07-12T09:23:36;13.90;;;8.35;;
40781;SDS011;26493;51.938;7.626;2022-07-12T09:26:02;15.27;;;9.32;;
40781;SDS011;26493;51.938;7.626;2022-07-12T09:28:34;15.45;;;9.45;;
40781;SDS011;26493;51.938;7.626;2022-07-12T09:31:00;14.05;;;9.02;;
40781;SDS011;26493;51.938;7.626;2022-07-12T09:33:27;15.13;;;9.18;;
40781;SDS011;26493;51.938;7.626;2022-07-12T09:36:11;14.60;;;9.45;;
40781;SDS011;26493;51.938;7.626;2022-07-12T09:41:05;14.70;;;9.57;;
40781;SDS011;26493;51.938;7.626;2022-07-12T09:43:31;16.05;;;9.40;;
40781;SDS011;26493;51.938;7.626;2022-07-12T09:45:57;14.13;;;9.45;;
40781;SDS011;26493;51.938;7.626;2022-07-12T09:48:24;15.27;;;9.55;;
40781;SDS011;26493;51.938;7.626;2022-07-12T09:50:51;14.98;;;9.70;;
40781;SDS011;26493;51.938;7.626;2022-07-12T09:53:21;15.63;;;9.73;;
40781;SDS011;26493;51.938;7.626;2022-07-12T09:55:49;15.60;;;9.80;;
40781;SDS011;26493;51.938;7.626;2022-07-12T09:58:18;14.65;;;9.68;;
40781;SDS011;26493;51.938;7.626;2022-07-12T10:00:46;14.40;;;9.30;;
40781;SDS011;26493;51.938;7.626;2022-07-12T10:03:13;16.05;;;9.55;;
40781;SDS011;26493;51.938;7.626;2022-07-12T10:05:40;14.80;;;9.55;;
40781;SDS011;26493;51.938;7.626;2022-07-12T10:08:07;15.77;;;9.45;;
40781;SDS011;26493;51.938;7.626;2022-07-12T10:10:34;14.30;;;9.30;;
40781;SDS011;26493;51.938;7.626;2022-07-12T10:13:00;14.43;;;9.50;;
40781;SDS011;26493;51.938;7.626;2022-07-12T10:15:27;14.45;;;9.50;;
40781;SDS011;26493;51.938;7.626;2022-07-12T10:17:54;14.35;;;9.90;;
40781;SDS011;26493;51.938;7.626;2022-07-12T10:20:25;16.00;;;9.75;;
40781;SDS011;26493;51.938;7.626;2022-07-12T10:23:34;14.98;;;10.00;;
40781;SDS011;26493;51.938;7.626;2022-07-12T10:25:41;14.27;;;9.88;;
40781;SDS011;26493;51.938;7.626;2022-07-12T10:28:07;15.85;;;10.30;;
40781;SDS011;26493;51.938;7.626;2022-07-12T10:30:51;17.20;;;13.50;;
40781;SDS011;26493;51.938;7.626;2022-07-12T10:33:19;14.60;;;10.07;;
40781;SDS011;26493;51.938;7.626;2022-07-12T10:36:02;14.40;;;10.27;;
40781;SDS011;26493;51.938;7.626;2022-07-12T10:38:28;16.35;;;10.60;;
40781;SDS011;26493;51.938;7.626;2022-07-12T10:40:55;14.40;;;10.13;;
40781;SDS011;26493;51.938;7.626;2022-07-12T10:43:23;14.32;;;10.30;;
40781;SDS011;26493;51.938;7.626;2022-07-12T10:46:13;14.32;;;10.40;;
40781;SDS011;26493;51.938;7.626;2022-07-12T10:48:39;15.73;;;10.60;;
40781;SDS011;26493;51.938;7.626;2022-07-12T10:51:12;14.50;;;10.30;;
40781;SDS011;26493;51.938;7.626;2022-07-12T10:53:38;15.27;;;10.52;;
40781;SDS011;26493;51.938;7.626;2022-07-12T10:58:38;16.70;;;11.25;;
40781;SDS011;26493;51.938;7.626;2022-07-12T11:01:08;18.75;;;10.90;;
40781;SDS011;26493;51.938;7.626;2022-07-12T11:06:04;15.32;;;10.90;;
40781;SDS011;26493;51.938;7.626;2022-07-12T11:08:30;14.90;;;10.75;;
40781;SDS011;26493;51.938;7.626;2022-07-12T11:10:57;15.40;;;10.60;;
40781;SDS011;26493;51.938;7.626;2022-07-12T11:13:23;15.93;;;11.02;;
40781;SDS011;26493;51.938;7.626;2022-07-12T11:15:57;14.35;;;10.35;;
40781;SDS011;26493;51.938;7.626;2022-07-12T11:18:33;15.80;;;11.10;;
40781;SDS011;26493;51.938;7.626;2022-07-12T11:21:00;14.50;;;10.57;;
40781;SDS011;26493;51.938;7.626;2022-07-12T11:23:26;14.73;;;10.73;;
40781;SDS011;26493;51.938;7.626;2022-07-12T11:25:56;15.35;;;10.68;;
40781;SDS011;26493;51.938;7.626;2022-07-12T11:28:26;15.10;;;10.25;;
40781;SDS011;26493;51.938;7.626;2022-07-12T11:30:53;14.27;;;10.20;;
40781;SDS011;26493;51.938;7.626;2022-07-12T11:33:26;17.77;;;13.88;;
40781;SDS011;26493;51.938;7.626;2022-07-12T11:35:57;15.65;;;11.30;;
40781;SDS011;26493;51.938;7.626;2022-07-12T11:38:24;16.15;;;11.15;;
40781;SDS011;26493;51.938;7.626;2022-07-12T11:40:57;14.35;;;10.90;;
40781;SDS011;26493;51.938;7.626;2022-07-12T11:43:23;14.88;;;11.00;;
40781;SDS011;26493;51.938;7.626;2022-07-12T11:45:50;15.52;;;11.48;;
40781;SDS011;26493;51.938;7.626;2022-07-12T11:48:17;14.90;;;11.30;;
40781;SDS011;26493;51.938;7.626;2022-07-12T11:50:43;15.57;;;11.50;;
40781;SDS011;26493;51.938;7.626;2022-07-12T11:53:22;14.82;;;11.43;;
40781;SDS011;26493;51.938;7.626;2022-07-12T11:55:49;14.80;;;11.40;;
40781;SDS011;26493;51.938;7.626;2022-07-12T11:58:16;15.75;;;11.00;;
40781;SDS011;26493;51.938;7.626;2022-07-12T12:00:42;14.65;;;11.23;;
40781;SDS011;26493;51.938;7.626;2022-07-12T12:03:09;14.90;;;11.48;;
40781;SDS011;26493;51.938;7.626;2022-07-12T12:05:35;16.08;;;11.30;;
40781;SDS011;26493;51.938;7.626;2022-07-12T12:08:02;14.90;;;11.02;;
40781;SDS011;26493;51.938;7.626;2022-07-12T12:10:28;14.60;;;10.93;;
40781;SDS011;26493;51.938;7.626;2022-07-12T12:12:55;14.93;;;10.98;;
40781;SDS011;26493;51.938;7.626;2022-07-12T12:20:17;14.48;;;11.18;;
40781;SDS011;26493;51.938;7.626;2022-07-12T12:22:44;14.67;;;10.80;;
40781;SDS011;26493;51.938;7.626;2022-07-12T12:25:10;15.98;;;11.30;;
40781;SDS011;26493;51.938;7.626;2022-07-12T12:30:08;14.70;;;10.55;;
40781;SDS011;26493;51.938;7.626;2022-07-12T12:35:33;14.63;;;11.00;;
40781;SDS011;26493;51.938;7.626;2022-07-12T12:38:10;14.55;;;11.00;;
40781;SDS011;26493;51.938;7.626;2022-07-12T12:40:39;14.70;;;11.20;;
40781;SDS011;26493;51.938;7.626;2022-07-12T12:43:06;15.48;;;11.30;;
40781;SDS011;26493;51.938;7.626;2022-07-12T12:45:32;16.08;;;11.20;;
40781;SDS011;26493;51.938;7.626;2022-07-12T12:48:05;14.98;;;11.20;;
40781;SDS011;26493;51.938;7.626;2022-07-12T12:53:07;15.60;;;11.02;;
40781;SDS011;26493;51.938;7.626;2022-07-12T12:55:34;14.60;;;11.05;;
40781;SDS011;26493;51.938;7.626;2022-07-12T12:58:01;14.85;;;11.40;;
40781;SDS011;26493;51.938;7.626;2022-07-12T13:00:27;14.70;;;11.52;;
40781;SDS011;26493;51.938;7.626;2022-07-12T13:02:53;15.43;;;11.32;;
40781;SDS011;26493;51.938;7.626;2022-07-12T13:05:18;17.45;;;11.13;;
40781;SDS011;26493;51.938;7.626;2022-07-12T13:07:44;14.63;;;11.05;;
40781;SDS011;26493;51.938;7.626;2022-07-12T13:10:10;16.13;;;10.70;;
40781;SDS011;26493;51.938;7.626;2022-07-12T13:12:36;14.65;;;10.93;;
40781;SDS011;26493;51.938;7.626;2022-07-12T13:15:02;14.73;;;10.98;;
40781;SDS011;26493;51.938;7.626;2022-07-12T13:17:28;15.32;;;11.10;;
40781;SDS011;26493;51.938;7.626;2022-07-12T13:19:55;14.68;;;11.13;;
40781;SDS011;26493;51.938;7.626;2022-07-12T13:22:21;19.00;;;11.77;;
40781;SDS011;26493;51.938;7.626;2022-07-12T13:24:47;14.95;;;11.00;;
40781;SDS011;26493;51.938;7.626;2022-07-12T13:27:14;14.40;;;10.82;;
40781;SDS011;26493;51.938;7.626;2022-07-12T13:29:40;14.95;;;11.20;;
40781;SDS011;26493;51.938;7.626;2022-07-12T13:32:06;14.70;;;10.70;;
40781;SDS011;26493;51.938;7.626;2022-07-12T13:34:32;15.45;;;11.00;;
40781;SDS011;26493;51.938;7.626;2022-07-12T13:36:58;14.50;;;11.07;;
40781;SDS011;26493;51.938;7.626;2022-07-12T13:39:24;14.70;;;11.00;;
40781;SDS011;26493;51.938;7.626;2022-07-12T13:42:09;15.20;;;10.90;;
40781;SDS011;26493;51.938;7.626;2022-07-12T13:44:35;14.55;;;10.93;;
40781;SDS011;26493;51.938;7.626;2022-07-12T13:47:01;14.77;;;11.20;;
40781;SDS011;26493;51.938;7.626;2022-07-12T13:49:27;14.48;;;10.90;;
40781;SDS011;26493;51.938;7.626;2022-07-12T13:51:53;14.60;;;10.80;;
40781;SDS011;26493;51.938;7.626;2022-07-12T13:54:19;14.55;;;10.88;;
40781;SDS011;26493;51.938;7.626;2022-07-12T13:56:46;14.57;;;11.23;;
40781;SDS011;26493;51.938;7.626;2022-07-12T13:59:12;14.90;;;11.35;;
40781;SDS011;26493;51.938;7.626;2022-07-12T14:01:38;14.52;;;11.43;;
40781;SDS011;26493;51.938;7.626;2022-07-12T14:04:04;15.55;;;11.60;;
40781;SDS011;26493;51.938;7.626;2022-07-12T14:06:30;15.32;;;11.88;;
40781;SDS011;26493;51.938;7.626;2022-07-12T14:08:56;15.10;;;11.68;;
40781;SDS011;26493;51.938;7.626;2022-07-12T14:11:22;14.88;;;11.70;;
40781;SDS011;26493;51.938;7.626;2022-07-12T14:13:49;15.00;;;11.90;;
40781;SDS011;26493;51.938;7.626;2022-07-12T14:16:15;14.65;;;11.40;;
40781;SDS011;26493;51.938;7.626;2022-07-12T14:18:43;14.70;;;11.20;;
40781;SDS011;26493;51.938;7.626;2022-07-12T14:21:09;15.52;;;11.20;;
40781;SDS011;26493;51.938;7.626;2022-07-12T14:23:36;15.88;;;11.40;;
40781;SDS011;26493;51.938;7.626;2022-07-12T14:26:02;15.00;;;11.40;;
40781;SDS011;26493;51.938;7.626;2022-07-12T14:28:28;15.63;;;11.50;;
40781;SDS011;26493;51.938;7.626;2022-07-12T14:30:54;14.70;;;11.70;;
40781;SDS011;26493;51.938;7.626;2022-07-12T14:33:20;15.27;;;11.30;;
40781;SDS011;26493;51.938;7.626;2022-07-12T14:35:46;14.98;;;11.10;;
40781;SDS011;26493;51.938;7.626;2022-07-12T14:38:12;14.93;;;11.77;;
40781;SDS011;26493;51.938;7.626;2022-07-12T14:40:38;14.80;;;11.43;;
40781;SDS011;26493;51.938;7.626;2022-07-12T14:43:04;14.93;;;11.32;;
40781;SDS011;26493;51.938;7.626;2022-07-12T14:45:30;14.98;;;11.30;;
40781;SDS011;26493;51.938;7.626;2022-07-12T14:47:56;14.80;;;11.70;;